Time;durP1;ratioP1;P1;durP2;ratioP2;P2;SDS_P1;SDS_P2;PMS_P1;PMS_P2;Temp;Humidity;BMP_temperature;BMP_pressure;BME280_temperature;BME280_humidity;BME280_pressure;Samples;Min_cycle;Max_cycle;Signal;HPM_P1;HPM_P2
2022/09/26 00:00:34;;;;;;;4.03;2.50;;;15.50;90.60;;;;;;5052495;28;20024;-70
2022/09/26 00:03:00;;;;;;;4.50;2.47;;;15.40;90.60;;;;;;5053314;28;20377;-70
2022/09/26 00:05:26;;;;;;;4.47;2.83;;;15.40;90.60;;;;;;5053176;28;20021;-70
2022/09/26 00:07:51;;;;;;;4.45;2.45;;;15.40;90.70;;;;;;5053253;28;20465;-70
2022/09/26 00:10:17;;;;;;;4.70;2.58;;;15.40;90.80;;;;;;5052645;28;20040;-70
2022/09/26 00:12:42;;;;;;;5.15;2.28;;;15.40;90.90;;;;;;5053229;28;20461;-70
2022/09/26 00:15:09;;;;;;;4.88;2.42;;;15.30;90.80;;;;;;5052940;28;20039;-70
2022/09/26 00:17:34;;;;;;;2.85;2.30;;;15.30;90.90;;;;;;5053133;28;20026;-70
2022/09/26 00:20:00;;;;;;;4.95;2.45;;;15.20;91.00;;;;;;5052795;28;20055;-71
2022/09/26 00:22:25;;;;;;;3.78;2.53;;;15.20;91.10;;;;;;5052786;28;20052;-71
2022/09/26 00:24:51;;;;;;;3.30;2.47;;;15.20;91.10;;;;;;5052820;28;20116;-71
2022/09/26 00:27:18;;;;;;;4.70;2.28;;;15.20;91.20;;;;;;5052888;28;20025;-70
2022/09/26 00:29:44;;;;;;;5.47;2.30;;;15.10;91.20;;;;;;5052389;28;20056;-71
2022/09/26 00:32:10;;;;;;;3.92;2.40;;;15.10;91.20;;;;;;5053003;28;20025;-71
2022/09/26 00:34:35;;;;;;;3.72;2.10;;;15.10;91.30;;;;;;5052741;28;20085;-71
2022/09/26 00:37:01;;;;;;;4.45;2.33;;;15.10;91.30;;;;;;5053029;28;20458;-71
2022/09/26 00:39:26;;;;;;;9.10;2.92;;;15.00;91.50;;;;;;5055396;28;20079;-71
2022/09/26 00:41:52;;;;;;;6.28;2.55;;;15.00;91.50;;;;;;5056686;28;20032;-71
2022/09/26 00:44:40;;;;;;;3.55;2.30;;;15.00;91.60;;;;;;5056422;28;20025;-71
2022/09/26 00:47:14;;;;;;;5.53;2.50;;;14.90;91.60;;;;;;5056400;28;20020;-71
2022/09/26 00:49:42;;;;;;;3.40;2.17;;;14.90;91.70;;;;;;5056358;28;20499;-71
2022/09/26 00:52:17;;;;;;;3.92;2.30;;;14.80;91.80;;;;;;5056542;28;20025;-71
2022/09/26 00:54:45;;;;;;;5.88;2.22;;;14.80;91.80;;;;;;5056520;28;20075;-71
2022/09/26 00:57:20;;;;;;;4.53;2.30;;;14.80;91.80;;;;;;5056238;28;20056;-71
2022/09/26 00:59:50;;;;;;;3.88;2.10;;;14.80;91.90;;;;;;5056304;28;20033;-71
2022/09/26 01:02:16;;;;;;;5.32;2.35;;;14.80;92.00;;;;;;5056244;28;20025;-71
2022/09/26 01:04:44;;;;;;;4.90;2.38;;;14.80;92.00;;;;;;5056083;28;20078;-71
2022/09/26 01:07:16;;;;;;;6.25;2.40;;;14.70;92.20;;;;;;5056452;28;20474;-71
2022/09/26 01:09:42;;;;;;;5.32;2.33;;;14.60;92.30;;;;;;5055819;28;20392;-71
2022/09/26 01:12:09;;;;;;;6.78;2.17;;;14.50;92.40;;;;;;5055962;28;20033;-71
2022/09/26 01:14:38;;;;;;;5.88;2.60;;;14.50;92.80;;;;;;5056180;28;20083;-71
2022/09/26 01:17:04;;;;;;;4.53;2.40;;;14.30;93.20;;;;;;5056192;28;20033;-71
2022/09/26 01:19:45;;;;;;;5.20;2.20;;;14.20;93.50;;;;;;5056108;28;20358;-71
2022/09/26 01:22:44;;;;;;;5.43;2.67;;;14.10;93.60;;;;;;5055779;28;20060;-71
2022/09/26 01:25:47;;;;;;;5.40;2.40;;;14.10;93.80;;;;;;5056158;28;20029;-71
2022/09/26 01:28:37;;;;;;;5.53;2.33;;;14.10;94.00;;;;;;5055649;28;20040;-71
2022/09/26 01:31:39;;;;;;;3.60;2.42;;;14.10;93.90;;;;;;5055765;28;20052;-71
2022/09/26 01:34:05;;;;;;;4.93;2.20;;;14.20;94.00;;;;;;5055563;28;20035;-71
2022/09/26 01:37:04;;;;;;;5.13;2.42;;;14.20;94.10;;;;;;5055559;28;20116;-71
2022/09/26 01:39:46;;;;;;;6.90;2.35;;;14.20;94.30;;;;;;5055011;28;20058;-71
2022/09/26 01:42:25;;;;;;;4.43;2.33;;;14.30;94.30;;;;;;5055694;28;20025;-71
2022/09/26 01:45:00;;;;;;;3.97;2.80;;;14.30;94.40;;;;;;5055437;28;20388;-72
2022/09/26 01:47:42;;;;;;;3.25;2.30;;;14.30;94.40;;;;;;5055654;28;20037;-72
2022/09/26 01:50:33;;;;;;;4.97;2.70;;;14.30;94.50;;;;;;5054316;28;20115;-71
2022/09/26 01:53:28;;;;;;;4.53;2.40;;;14.30;94.30;;;;;;5055249;28;20036;-72
2022/09/26 01:56:03;;;;;;;7.07;4.18;;;14.30;94.20;;;;;;5050262;28;20504;-72
2022/09/26 01:58:36;;;;;;;7.03;4.55;;;14.40;94.20;;;;;;5055012;28;20549;-72
2022/09/26 02:01:07;;;;;;;8.57;6.57;;;14.40;94.10;;;;;;5055278;28;20054;-72
2022/09/26 02:03:38;;;;;;;56.58;50.22;;;14.40;94.20;;;;;;5055432;28;20032;-72
2022/09/26 02:06:13;;;;;;;61.72;55.03;;;14.50;94.10;;;;;;5055264;28;20033;-72
2022/09/26 02:08:41;;;;;;;38.22;34.25;;;14.50;94.00;;;;;;5054955;28;20044;-72
2022/09/26 02:11:17;;;;;;;26.13;23.42;;;14.60;94.00;;;;;;5054953;28;20029;-72
2022/09/26 02:14:02;;;;;;;25.23;22.33;;;14.60;93.80;;;;;;5055253;28;20021;-72
2022/09/26 02:16:37;;;;;;;9.60;8.50;;;14.60;93.80;;;;;;5054784;28;20480;-72
2022/09/26 02:19:14;;;;;;;6.53;4.20;;;14.60;93.70;;;;;;5054611;28;20147;-71
2022/09/26 02:21:41;;;;;;;5.30;2.75;;;14.60;93.60;;;;;;5055062;28;20478;-71
2022/09/26 02:24:06;;;;;;;7.85;2.83;;;14.60;93.60;;;;;;5053579;28;20025;-72
2022/09/26 02:26:32;;;;;;;6.40;2.10;;;14.50;93.50;;;;;;5054677;28;20040;-72
2022/09/26 02:28:58;;;;;;;7.60;2.20;;;14.50;93.50;;;;;;5054498;28;20055;-71
2022/09/26 02:31:28;;;;;;;6.45;2.55;;;14.50;93.30;;;;;;5054708;28;20094;-71
2022/09/26 02:33:54;;;;;;;4.15;2.00;;;14.40;93.30;;;;;;5054440;28;20029;-71
2022/09/26 02:36:20;;;;;;;3.08;2.30;;;14.40;93.30;;;;;;5054636;28;20021;-71
2022/09/26 02:38:46;;;;;;;6.80;3.35;;;14.40;93.20;;;;;;5054580;28;20071;-72
2022/09/26 02:41:12;;;;;;;7.43;2.70;;;14.40;93.10;;;;;;5054119;28;20032;-72
2022/09/26 02:43:37;;;;;;;3.92;2.10;;;14.30;93.10;;;;;;5054309;28;20105;-71
2022/09/26 02:46:24;;;;;;;5.50;2.38;;;14.30;93.10;;;;;;5054175;28;20033;-71
2022/09/26 02:49:10;;;;;;;3.15;2.22;;;14.30;93.10;;;;;;5054392;28;20029;-71
2022/09/26 02:51:48;;;;;;;4.60;2.33;;;14.30;93.00;;;;;;5054187;28;20029;-71
2022/09/26 02:54:33;;;;;;;6.38;2.30;;;14.20;93.00;;;;;;5054073;28;20021;-71
2022/09/26 02:57:13;;;;;;;4.88;2.05;;;14.20;92.90;;;;;;5054006;28;20021;-71
2022/09/26 02:59:58;;;;;;;4.55;2.10;;;14.20;93.00;;;;;;5054190;28;20021;-71
2022/09/26 03:02:30;;;;;;;4.65;2.40;;;14.20;93.00;;;;;;5053915;28;20037;-72
2022/09/26 03:05:10;;;;;;;4.13;2.00;;;14.10;92.80;;;;;;5054192;28;20025;-71
2022/09/26 03:08:05;;;;;;;6.82;2.15;;;14.10;92.80;;;;;;5054128;28;20376;-71
2022/09/26 03:10:32;;;;;;;7.88;2.08;;;14.10;92.70;;;;;;5031873;28;20067;-71
2022/09/26 03:13:07;;;;;;;4.22;1.73;;;14.10;92.80;;;;;;5053424;28;20384;-71
2022/09/26 03:15:34;;;;;;;5.03;1.90;;;14.00;92.90;;;;;;5054017;28;20044;-71
2022/09/26 03:18:02;;;;;;;5.90;2.45;;;14.00;92.90;;;;;;5053252;28;20021;-71
2022/09/26 03:20:28;;;;;;;6.38;2.25;;;14.00;93.10;;;;;;5053926;28;20029;-71
2022/09/26 03:22:54;;;;;;;5.30;1.83;;;13.90;93.00;;;;;;5053839;28;20035;-71
2022/09/26 03:25:24;;;;;;;7.45;2.38;;;13.90;93.20;;;;;;5053530;28;20028;-71
2022/09/26 03:27:51;;;;;;;4.40;1.80;;;13.90;93.30;;;;;;5053532;28;20052;-71
2022/09/26 03:30:17;;;;;;;6.70;2.45;;;13.80;93.40;;;;;;5053214;28;20055;-71
2022/09/26 03:32:43;;;;;;;5.03;2.00;;;13.80;93.60;;;;;;5053569;28;20029;-71
2022/09/26 03:35:09;;;;;;;6.18;2.13;;;13.80;93.60;;;;;;5053279;28;20106;-71
2022/09/26 03:37:36;;;;;;;6.65;1.83;;;13.80;93.60;;;;;;5053249;28;20025;-71
2022/09/26 03:40:09;;;;;;;3.72;2.15;;;13.80;93.60;;;;;;5053518;28;20071;-72
2022/09/26 03:42:36;;;;;;;5.60;2.10;;;13.80;93.70;;;;;;5053498;28;20025;-70
2022/09/26 03:45:04;;;;;;;3.42;2.40;;;13.70;93.80;;;;;;5053480;28;20357;-69
2022/09/26 03:47:30;;;;;;;5.00;2.58;;;13.70;94.00;;;;;;5053172;28;20021;-69
2022/09/26 03:49:56;;;;;;;6.30;2.25;;;13.70;94.10;;;;;;5053071;28;20438;-70
2022/09/26 03:52:21;;;;;;;3.90;2.00;;;13.70;94.10;;;;;;5053244;28;20032;-70
2022/09/26 03:54:47;;;;;;;6.32;2.10;;;13.60;94.10;;;;;;5053381;28;20598;-71
2022/09/26 03:57:14;;;;;;;4.38;1.92;;;13.60;94.20;;;;;;5053348;28;20464;-71
2022/09/26 03:59:39;;;;;;;7.15;2.40;;;13.60;94.30;;;;;;5053119;28;20081;-71
2022/09/26 04:02:05;;;;;;;10.07;2.28;;;13.60;94.30;;;;;;5053051;28;20104;-71
2022/09/26 04:04:32;;;;;;;6.05;1.92;;;13.50;94.40;;;;;;5053101;28;20019;-71
2022/09/26 04:06:58;;;;;;;10.52;2.15;;;13.60;94.30;;;;;;5053038;28;20393;-71
2022/09/26 04:09:24;;;;;;;6.35;2.20;;;13.50;94.30;;;;;;5051721;28;20099;-71
2022/09/26 04:11:51;;;;;;;5.05;1.98;;;13.50;94.30;;;;;;5052997;28;20465;-71
2022/09/26 04:14:17;;;;;;;8.43;1.92;;;13.50;94.40;;;;;;5055388;28;20024;-71
2022/09/26 04:16:43;;;;;;;6.38;1.88;;;13.50;94.40;;;;;;5056912;28;20074;-71
2022/09/26 04:19:10;;;;;;;4.15;2.10;;;13.50;94.40;;;;;;5057256;28;20021;-72
2022/09/26 04:21:38;;;;;;;3.72;1.88;;;13.50;94.40;;;;;;5056991;28;20028;-72
2022/09/26 04:24:11;;;;;;;3.65;1.75;;;13.50;94.50;;;;;;5057146;28;20056;-72
2022/09/26 04:26:42;;;;;;;7.03;2.00;;;13.60;94.40;;;;;;5056882;28;20414;-72
2022/09/26 04:29:08;;;;;;;5.88;1.48;;;13.50;94.30;;;;;;5056796;28;20053;-72
2022/09/26 04:31:35;;;;;;;6.97;2.20;;;13.50;94.10;;;;;;5057092;28;20021;-72
2022/09/26 04:34:03;;;;;;;4.40;1.48;;;13.40;94.20;;;;;;5057036;28;20035;-72
2022/09/26 04:36:29;;;;;;;8.15;1.63;;;13.50;94.20;;;;;;5056958;28;20350;-72
2022/09/26 04:38:56;;;;;;;6.47;1.60;;;13.50;94.20;;;;;;5056414;28;20472;-72
2022/09/26 04:41:22;;;;;;;5.90;1.48;;;13.50;94.30;;;;;;5056897;28;20091;-72
2022/09/26 04:43:48;;;;;;;6.72;1.42;;;13.50;94.40;;;;;;5056901;28;20021;-72
2022/09/26 04:46:16;;;;;;;4.32;1.15;;;13.50;94.20;;;;;;5056528;28;20469;-72
2022/09/26 04:48:43;;;;;;;4.90;1.67;;;13.50;94.10;;;;;;5056344;28;20037;-72
2022/09/26 04:51:11;;;;;;;5.43;1.30;;;13.50;94.10;;;;;;5056383;28;20492;-72
2022/09/26 04:53:38;;;;;;;3.50;1.10;;;13.50;94.00;;;;;;5056289;28;20155;-72
2022/09/26 04:56:04;;;;;;;4.97;1.08;;;13.50;93.70;;;;;;5056190;28;20036;-72
2022/09/26 04:58:30;;;;;;;6.18;1.50;;;13.50;93.60;;;;;;5056464;28;20024;-72
2022/09/26 05:01:05;;;;;;;4.15;1.48;;;13.50;93.90;;;;;;5056060;28;20039;-72
2022/09/26 05:03:31;;;;;;;2.88;1.05;;;13.50;93.90;;;;;;5056129;28;20044;-72
2022/09/26 05:05:57;;;;;;;6.05;1.35;;;13.50;93.90;;;;;;5056347;28;20480;-71
2022/09/26 05:08:24;;;;;;;4.53;1.30;;;13.50;93.80;;;;;;5056186;28;20096;-71
2022/09/26 05:10:55;;;;;;;4.90;1.08;;;13.40;93.60;;;;;;5056221;28;20037;-71
2022/09/26 05:13:22;;;;;;;5.85;1.52;;;13.40;93.50;;;;;;5056203;28;20017;-71
2022/09/26 05:15:49;;;;;;;5.07;1.17;;;13.40;93.20;;;;;;5055671;28;20029;-71
2022/09/26 05:18:15;;;;;;;4.53;1.17;;;13.30;93.20;;;;;;5055761;28;20029;-72
2022/09/26 05:20:46;;;;;;;4.07;1.38;;;13.30;93.30;;;;;;5055704;28;20033;-71
2022/09/26 05:23:12;;;;;;;3.30;1.30;;;13.40;93.70;;;;;;5050816;28;20083;-71
2022/09/26 05:28:24;;;;;;;5.30;1.35;;;13.30;93.90;;;;;;5054085;28;20098;-70
2022/09/26 05:30:51;;;;;;;3.75;1.77;;;13.40;94.00;;;;;;5055581;28;20362;-71
2022/09/26 05:33:20;;;;;;;3.22;1.30;;;13.40;94.20;;;;;;5055721;28;20025;-71
2022/09/26 05:35:54;;;;;;;6.88;1.55;;;13.30;94.30;;;;;;5055643;28;20464;-71
2022/09/26 05:38:20;;;;;;;5.32;1.70;;;13.30;94.30;;;;;;5055753;28;20025;-71
2022/09/26 05:40:58;;;;;;;3.00;1.30;;;13.30;94.20;;;;;;5055113;28;20036;-71
2022/09/26 05:43:28;;;;;;;3.72;1.10;;;13.20;94.30;;;;;;5055617;28;20147;-71
2022/09/26 05:46:05;;;;;;;5.75;1.20;;;13.20;94.50;;;;;;5053419;28;20027;-71
2022/09/26 05:48:33;;;;;;;5.43;1.63;;;13.30;94.60;;;;;;5053249;28;20122;-71
2022/09/26 05:51:12;;;;;;;2.70;1.30;;;13.20;94.40;;;;;;5052264;28;20024;-78
2022/09/26 05:53:39;;;;;;;3.40;1.45;;;13.30;94.60;;;;;;5044935;28;20094;-77
2022/09/26 05:56:05;;;;;;;3.33;1.77;;;13.30;94.50;;;;;;5054171;28;20068;-76
2022/09/26 05:58:33;;;;;;;6.88;1.63;;;13.30;94.50;;;;;;5055385;28;20031;-76
2022/09/26 06:01:12;;;;;;;5.47;1.42;;;13.30;94.50;;;;;;5060236;28;20029;-74
2022/09/26 06:03:40;;;;;;;4.47;1.70;;;13.20;94.40;;;;;;5065010;28;20036;-74
2022/09/26 06:06:19;;;;;;;6.93;1.38;;;13.20;94.40;;;;;;5059751;28;20033;-74
2022/09/26 06:08:46;;;;;;;3.83;1.85;;;13.20;94.50;;;;;;5054565;28;20411;-76
2022/09/26 06:11:15;;;;;;;14.50;2.22;;;13.20;94.70;;;;;;5055022;28;20105;-74
2022/09/26 06:13:45;;;;;;;5.80;1.33;;;13.20;94.70;;;;;;5054801;28;20021;-73
2022/09/26 06:16:19;;;;;;;5.95;1.33;;;13.20;94.80;;;;;;5054855;28;20048;-71
2022/09/26 06:18:46;;;;;;;7.63;1.70;;;13.20;94.80;;;;;;5054567;28;20021;-72
2022/09/26 06:21:14;;;;;;;3.15;1.25;;;13.20;94.90;;;;;;5054934;28;20021;-74
2022/09/26 06:23:39;;;;;;;4.68;1.60;;;13.20;94.90;;;;;;5054337;28;20476;-78
2022/09/26 06:26:07;;;;;;;4.63;1.30;;;13.30;94.90;;;;;;5054371;28;20040;-77
2022/09/26 06:28:33;;;;;;;3.63;1.50;;;13.30;94.90;;;;;;5054343;28;20091;-77
2022/09/26 06:30:59;;;;;;;5.65;1.30;;;13.30;94.80;;;;;;5054605;28;20121;-77
2022/09/26 06:33:24;;;;;;;6.90;1.92;;;13.30;94.80;;;;;;5060744;28;20056;-79
2022/09/26 06:36:05;;;;;;;8.98;1.58;;;13.30;94.80;;;;;;5071134;28;20028;-73
2022/09/26 06:38:30;;;;;;;6.07;1.40;;;13.30;94.90;;;;;;5074238;28;20533;-73
2022/09/26 06:40:56;;;;;;;6.00;1.42;;;13.30;94.90;;;;;;5074520;28;20025;-73
2022/09/26 06:43:22;;;;;;;10.13;1.60;;;13.30;94.80;;;;;;5074187;28;20468;-73
2022/09/26 06:45:48;;;;;;;6.75;1.60;;;13.30;94.80;;;;;;5074428;28;20020;-72
2022/09/26 06:48:17;;;;;;;3.88;1.70;;;13.30;94.80;;;;;;5073971;28;20476;-72
2022/09/26 06:50:43;;;;;;;4.43;1.27;;;13.30;94.70;;;;;;5071324;28;20127;-73
2022/09/26 06:53:09;;;;;;;4.65;1.25;;;13.40;94.90;;;;;;5065388;28;20104;-74
2022/09/26 06:55:35;;;;;;;4.90;1.85;;;13.40;95.10;;;;;;5053666;28;20029;-73
2022/09/26 06:58:00;;;;;;;5.65;1.45;;;13.50;94.80;;;;;;5053694;28;20021;-74
2022/09/26 07:00:28;;;;;;;7.90;1.45;;;13.50;94.70;;;;;;5053846;28;20024;-74
2022/09/26 07:02:55;;;;;;;5.20;1.80;;;13.50;94.70;;;;;;5056486;28;20795;-77
2022/09/26 07:05:22;;;;;;;5.68;1.40;;;13.50;94.70;;;;;;5068526;28;20162;-76
2022/09/26 07:07:48;;;;;;;5.45;1.50;;;13.50;94.50;;;;;;5073968;28;20016;-76
2022/09/26 07:10:17;;;;;;;5.18;1.90;;;13.50;94.50;;;;;;5060191;28;20043;-75
2022/09/26 07:12:46;;;;;;;4.00;1.50;;;13.40;94.40;;;;;;5057103;28;20116;-75
2022/09/26 07:15:13;;;;;;;5.70;1.60;;;13.40;94.40;;;;;;5053341;28;20112;-75
2022/09/26 07:17:40;;;;;;;6.20;1.63;;;13.40;94.50;;;;;;5053522;28;20025;-74
2022/09/26 07:20:19;;;;;;;5.28;1.88;;;13.40;94.70;;;;;;5053805;28;20032;-74
2022/09/26 07:22:45;;;;;;;5.03;1.45;;;13.40;94.80;;;;;;5053621;28;20025;-73
2022/09/26 07:25:12;;;;;;;5.53;1.90;;;13.40;94.80;;;;;;5053670;28;20025;-73
2022/09/26 07:27:39;;;;;;;5.53;2.05;;;13.40;94.80;;;;;;5053511;28;20098;-73
2022/09/26 07:30:06;;;;;;;6.20;1.48;;;13.40;94.90;;;;;;5053090;28;20107;-73
2022/09/26 07:32:32;;;;;;;5.68;1.50;;;13.50;95.10;;;;;;5053536;28;20053;-73
2022/09/26 07:34:58;;;;;;;6.63;1.77;;;13.40;94.80;;;;;;5053639;28;20052;-74
2022/09/26 07:37:24;;;;;;;4.85;1.60;;;13.50;94.80;;;;;;5053158;28;20108;-74
2022/09/26 07:39:49;;;;;;;4.22;1.70;;;13.50;94.80;;;;;;5053495;28;20037;-73
2022/09/26 07:42:16;;;;;;;5.00;1.50;;;13.50;94.60;;;;;;5054887;28;20024;-72
2022/09/26 07:44:43;;;;;;;7.93;1.80;;;13.50;94.60;;;;;;5051958;28;20021;-78
2022/09/26 07:52:38;;;;;;;7.10;1.25;;;13.50;94.70;;;;;;5066089;28;20071;-77
2022/09/26 07:55:06;;;;;;;8.55;1.70;;;13.50;94.70;;;;;;5058229;28;20033;-77
2022/09/26 07:57:34;;;;;;;8.27;1.48;;;13.60;94.70;;;;;;5059016;28;20438;-76
2022/09/26 08:00:12;;;;;;;4.75;1.23;;;13.50;94.60;;;;;;5055619;28;20056;-72
2022/09/26 08:02:41;;;;;;;4.18;1.27;;;13.50;94.70;;;;;;5052534;28;20186;-72
2022/09/26 08:05:08;;;;;;;4.88;1.80;;;13.50;94.80;;;;;;5053169;28;20025;-72
2022/09/26 08:07:36;;;;;;;7.10;1.45;;;13.50;94.70;;;;;;5054311;28;20043;-72
2022/09/26 08:10:06;;;;;;;4.20;1.10;;;13.50;94.50;;;;;;5052902;28;20499;-72
2022/09/26 08:12:36;;;;;;;5.93;1.65;;;13.50;94.50;;;;;;5053097;28;20385;-72
2022/09/26 08:15:06;;;;;;;4.70;1.15;;;13.50;94.70;;;;;;5053013;28;20043;-72
2022/09/26 08:17:33;;;;;;;6.80;1.40;;;13.50;94.80;;;;;;5053104;28;20421;-73
2022/09/26 08:19:59;;;;;;;4.22;1.17;;;13.60;95.00;;;;;;5052876;28;20067;-73
2022/09/26 08:22:25;;;;;;;6.50;1.20;;;13.60;95.00;;;;;;5052478;28;20029;-73
2022/09/26 08:24:52;;;;;;;4.57;1.45;;;13.60;94.90;;;;;;5052968;28;20044;-72
2022/09/26 08:27:18;;;;;;;5.55;1.27;;;13.60;94.90;;;;;;5053171;28;20483;-73
2022/09/26 08:29:47;;;;;;;6.18;1.48;;;13.60;94.90;;;;;;5052624;28;20045;-73
2022/09/26 08:32:15;;;;;;;6.82;1.25;;;13.60;94.90;;;;;;5052944;28;20040;-73
2022/09/26 08:34:40;;;;;;;4.75;1.40;;;13.60;94.80;;;;;;5052919;28;20028;-73
2022/09/26 08:37:06;;;;;;;4.07;1.17;;;13.70;94.70;;;;;;5052958;28;20025;-74
2022/09/26 08:39:32;;;;;;;4.03;1.15;;;13.70;94.70;;;;;;5052836;28;20432;-74
2022/09/26 08:42:32;;;;;;;6.32;1.50;;;13.70;94.80;;;;;;5052444;28;20025;-75
2022/09/26 08:48:47;;;;;;;5.63;1.33;;;13.70;95.10;;;;;;5052954;28;20040;-75
2022/09/26 08:51:39;;;;;;;4.75;1.30;;;13.60;95.10;;;;;;5052688;28;20112;-74
2022/09/26 08:54:12;;;;;;;3.83;1.08;;;13.70;95.00;;;;;;5052293;28;20029;-74
2022/09/26 08:56:46;;;;;;;3.38;1.40;;;13.70;94.90;;;;;;5052399;28;20025;-74
2022/09/26 08:59:24;;;;;;;5.22;1.25;;;13.80;95.10;;;;;;5052802;28;20029;-74
2022/09/26 09:01:52;;;;;;;5.28;1.38;;;13.80;95.10;;;;;;5056165;28;20408;-75
2022/09/26 09:04:26;;;;;;;3.45;1.00;;;13.90;95.00;;;;;;5056212;28;20021;-75
2022/09/26 09:07:03;;;;;;;4.93;1.35;;;13.80;94.90;;;;;;5056468;28;20033;-75
2022/09/26 09:09:28;;;;;;;5.72;1.38;;;13.90;95.00;;;;;;5056713;28;20496;-75
2022/09/26 09:12:09;;;;;;;4.75;1.20;;;13.80;94.90;;;;;;5055907;28;20021;-74
2022/09/26 09:15:10;;;;;;;7.78;1.35;;;13.70;95.10;;;;;;5060822;28;20107;-76
2022/09/26 09:17:47;;;;;;;3.08;1.23;;;13.70;95.50;;;;;;5016328;28;20037;-77
2022/09/26 09:20:33;;;;;;;5.35;1.30;;;13.70;95.80;;;;;;5056110;28;20031;-77
2022/09/26 09:23:15;;;;;;;5.45;1.20;;;13.70;95.90;;;;;;5075957;28;20046;-78
2022/09/26 09:25:48;;;;;;;5.47;1.67;;;13.60;96.20;;;;;;5075516;28;20047;-76
2022/09/26 09:28:26;;;;;;;;;;;13.70;96.70;;;;;;5076235;28;20071;-76
2022/09/26 09:31:08;;;;;;;7.30;1.80;;;13.60;97.10;;;;;;5075602;28;20433;-76
2022/09/26 09:33:44;;;;;;;6.03;1.77;;;13.60;96.60;;;;;;5075827;28;20029;-76
2022/09/26 09:36:22;;;;;;;7.25;2.13;;;13.50;97.10;;;;;;5075612;28;20051;-74
2022/09/26 09:38:49;;;;;;;5.15;1.50;;;13.50;97.30;;;;;;5075701;28;20074;-73
2022/09/26 09:41:19;;;;;;;4.95;1.55;;;13.60;97.40;;;;;;5075515;28;20028;-73
2022/09/26 09:43:55;;;;;;;5.53;1.60;;;13.60;97.50;;;;;;5075862;28;20503;-73
2022/09/26 09:46:29;;;;;;;5.60;1.65;;;13.60;97.90;;;;;;5075483;28;20078;-73
2022/09/26 09:49:13;;;;;;;6.05;1.60;;;13.60;97.70;;;;;;5072642;28;20075;-74
2022/09/26 09:51:56;;;;;;;8.60;1.50;;;13.60;97.80;;;;;;5054000;28;20032;-74
2022/09/26 09:54:27;;;;;;;11.43;3.05;;;13.70;98.00;;;;;;5055275;28;20021;-73
2022/09/26 09:57:19;;;;;;;4.60;1.65;;;13.70;98.00;;;;;;5055418;28;20036;-75
2022/09/26 10:00:02;;;;;;;6.13;1.70;;;13.70;98.00;;;;;;5055427;28;20025;-75
2022/09/26 10:02:46;;;;;;;8.57;1.92;;;13.80;98.10;;;;;;5054609;28;20056;-74
2022/09/26 10:05:32;;;;;;;7.00;1.75;;;13.70;98.00;;;;;;5055294;28;20037;-74
2022/09/26 10:07:58;;;;;;;6.07;1.83;;;13.70;98.20;;;;;;5055222;28;20024;-75
2022/09/26 10:10:39;;;;;;;5.80;1.58;;;13.70;98.00;;;;;;5054283;28;20503;-76
2022/09/26 10:13:07;;;;;;;6.82;1.92;;;13.70;98.10;;;;;;5065576;28;20476;-75
2022/09/26 10:15:35;;;;;;;4.68;1.80;;;13.70;98.00;;;;;;5054910;28;20413;-75
2022/09/26 10:18:04;;;;;;;5.82;1.80;;;13.80;98.10;;;;;;5067449;28;20021;-74
2022/09/26 10:20:38;;;;;;;4.25;1.65;;;13.70;98.10;;;;;;5065311;28;20032;-73
2022/09/26 10:23:20;;;;;;;5.50;1.40;;;13.70;98.20;;;;;;5060416;28;20494;-74
2022/09/26 10:25:48;;;;;;;7.05;2.25;;;13.70;98.20;;;;;;5065602;28;20044;-76
2022/09/26 10:28:25;;;;;;;5.40;1.50;;;13.70;98.20;;;;;;5054362;28;20400;-79
2022/09/26 10:30:54;;;;;;;5.75;1.52;;;13.70;98.10;;;;;;5066470;28;20040;-72
2022/09/26 10:33:32;;;;;;;5.00;2.13;;;13.60;98.30;;;;;;5054761;28;20384;-72
2022/09/26 10:36:10;;;;;;;9.40;1.55;;;13.60;98.60;;;;;;5054664;28;20029;-72
2022/09/26 10:41:43;;;;;;;8.52;1.80;;;13.60;98.60;;;;;;5054309;28;20040;-72
2022/09/26 10:44:40;;;;;;;7.57;1.90;;;13.60;98.80;;;;;;5054099;28;20064;-72
2022/09/26 10:47:12;;;;;;;5.90;1.67;;;13.70;99.00;;;;;;5053355;28;20098;-72
2022/09/26 10:49:45;;;;;;;6.70;1.80;;;13.60;99.10;;;;;;5054299;28;20120;-72
2022/09/26 10:52:29;;;;;;;7.05;2.20;;;13.60;99.40;;;;;;5054305;28;20075;-72
2022/09/26 10:55:08;;;;;;;6.85;1.52;;;13.60;99.50;;;;;;5053942;28;20393;-72
2022/09/26 10:57:39;;;;;;;5.15;1.88;;;13.60;99.50;;;;;;5054251;28;20350;-72
2022/09/26 11:00:06;;;;;;;7.40;2.10;;;13.60;99.50;;;;;;5053985;28;20491;-72
2022/09/26 11:02:32;;;;;;;5.30;1.90;;;13.60;99.60;;;;;;5053749;28;20040;-73
2022/09/26 11:07:46;;;;;;;4.45;1.77;;;13.60;99.70;;;;;;5055033;28;20036;-74
2022/09/26 11:10:17;;;;;;;5.97;1.70;;;13.60;99.70;;;;;;5054833;28;20369;-77
2022/09/26 11:13:01;;;;;;;5.47;1.50;;;13.60;99.80;;;;;;5054005;28;20053;-77
2022/09/26 11:15:28;;;;;;;3.67;1.35;;;13.60;99.80;;;;;;5054112;28;20021;-74
2022/09/26 11:17:54;;;;;;;5.22;2.33;;;13.70;99.90;;;;;;5068350;28;20479;-73
2022/09/26 11:20:52;;;;;;;3.95;1.38;;;13.70;99.90;;;;;;5073984;28;20031;-73
2022/09/26 11:23:43;;;;;;;3.53;1.80;;;13.70;99.90;;;;;;5068819;28;20537;-72
2022/09/26 11:26:30;;;;;;;4.15;1.60;;;13.70;99.90;;;;;;5033575;28;20025;-72
2022/09/26 11:29:16;;;;;;;7.10;1.85;;;13.70;99.90;;;;;;5055862;28;20083;-72
2022/09/26 11:31:43;;;;;;;4.22;1.63;;;13.70;99.90;;;;;;5073700;28;20078;-72
2022/09/26 11:34:27;;;;;;;6.60;1.60;;;13.60;99.90;;;;;;5072465;28;20111;-71
2022/09/26 11:37:15;;;;;;;6.70;1.90;;;13.60;99.90;;;;;;5064371;28;20071;-74
2022/09/26 11:39:49;;;;;;;5.35;1.65;;;13.50;99.90;;;;;;5062797;28;20135;-74
2022/09/26 11:42:26;;;;;;;5.25;1.67;;;13.50;99.90;;;;;;5053605;28;20103;-72
2022/09/26 11:44:57;;;;;;;4.85;1.92;;;13.40;99.90;;;;;;5053334;28;20025;-72
2022/09/26 11:47:35;;;;;;;6.90;1.75;;;13.40;99.90;;;;;;5053526;28;20020;-73
2022/09/26 11:50:22;;;;;;;3.47;1.48;;;13.50;99.90;;;;;;5061057;28;20033;-72
2022/09/26 11:53:15;;;;;;;3.72;1.58;;;13.50;99.90;;;;;;5072868;28;20017;-72
2022/09/26 11:56:06;;;;;;;4.60;1.85;;;13.50;99.90;;;;;;5073211;28;20391;-71
2022/09/26 11:58:49;;;;;;;5.88;1.45;;;13.50;99.90;;;;;;5056839;28;20056;-71
2022/09/26 12:01:26;;;;;;;5.80;1.95;;;13.40;99.90;;;;;;5052999;28;20031;-71
2022/09/26 12:03:55;;;;;;;4.45;1.23;;;13.40;99.90;;;;;;5052375;28;20029;-72
2022/09/26 12:07:01;;;;;;;6.05;1.42;;;13.40;99.90;;;;;;5052370;28;20028;-71
2022/09/26 12:10:06;;;;;;;2.63;1.55;;;13.40;99.90;;;;;;5010634;28;20038;-71
2022/09/26 12:12:41;;;;;;;5.47;1.65;;;13.30;99.90;;;;;;5052550;28;20507;-71
2022/09/26 12:15:29;;;;;;;3.50;1.40;;;13.30;99.90;;;;;;5052321;28;20427;-71
2022/09/26 12:17:58;;;;;;;3.45;1.40;;;13.30;99.90;;;;;;5052876;28;20471;-71
2022/09/26 12:20:45;;;;;;;3.88;1.60;;;13.30;99.90;;;;;;5052921;28;20029;-71
2022/09/26 12:23:49;;;;;;;8.65;2.38;;;13.30;99.90;;;;;;5055066;28;20107;-72
2022/09/26 12:26:24;;;;;;;3.85;1.73;;;13.30;99.90;;;;;;5047645;28;20024;-72
2022/09/26 12:28:56;;;;;;;3.67;1.30;;;13.30;99.90;;;;;;5072645;28;20514;-72
2022/09/26 12:31:33;;;;;;;3.40;1.23;;;13.30;99.90;;;;;;5072800;28;20094;-72
2022/09/26 12:34:23;;;;;;;4.10;1.20;;;13.30;99.90;;;;;;5065460;28;20017;-73
2022/09/26 12:37:11;;;;;;;5.45;1.55;;;13.40;99.90;;;;;;5056990;28;20025;-72
2022/09/26 12:40:07;;;;;;;4.25;1.38;;;13.40;99.90;;;;;;5056644;28;20052;-72
2022/09/26 12:42:50;;;;;;;2.55;1.30;;;13.40;99.90;;;;;;5056586;28;20021;-72
2022/09/26 12:45:42;;;;;;;3.63;1.00;;;13.30;99.90;;;;;;5056410;28;20538;-72
2022/09/26 12:48:33;;;;;;;2.63;1.33;;;13.30;99.90;;;;;;5056667;28;20143;-72
2022/09/26 12:51:28;;;;;;;3.65;1.38;;;13.30;99.90;;;;;;5056668;28;20083;-72
2022/09/26 12:54:31;;;;;;;4.43;1.45;;;13.40;99.90;;;;;;5055453;28;20045;-73
2022/09/26 12:57:29;;;;;;;2.00;1.20;;;13.40;99.90;;;;;;5056155;28;20025;-73
2022/09/26 13:00:17;;;;;;;6.78;1.65;;;13.40;99.90;;;;;;5055266;28;20033;-72
2022/09/26 13:02:54;;;;;;;4.70;1.17;;;13.40;99.90;;;;;;5056056;28;20029;-72
2022/09/26 13:05:41;;;;;;;2.22;1.00;;;13.40;99.90;;;;;;5056151;28;20029;-72
2022/09/26 13:08:15;;;;;;;1.38;0.90;;;13.40;99.90;;;;;;5055699;28;20151;-71
2022/09/26 13:10:55;;;;;;;2.03;0.70;;;13.40;99.90;;;;;;5055944;28;20476;-71
2022/09/26 13:13:45;;;;;;;1.83;0.90;;;13.40;99.90;;;;;;5055862;28;20021;-71
2022/09/26 13:16:23;;;;;;;3.80;0.93;;;13.40;99.90;;;;;;5055982;28;20029;-71
2022/09/26 13:18:55;;;;;;;2.08;0.80;;;13.50;99.90;;;;;;5056195;28;20071;-71
2022/09/26 13:21:36;;;;;;;2.67;0.70;;;13.50;99.90;;;;;;5055682;28;20029;-72
2022/09/26 13:24:12;;;;;;;1.05;0.60;;;13.50;99.90;;;;;;5050780;28;20025;-74
2022/09/26 13:26:47;;;;;;;2.00;1.00;;;13.50;99.90;;;;;;5055571;28;20029;-74
2022/09/26 13:29:19;;;;;;;2.80;0.70;;;13.50;99.90;;;;;;5060430;28;20051;-78
2022/09/26 13:31:54;;;;;;;1.48;0.50;;;13.50;99.90;;;;;;5058922;28;20029;-73
2022/09/26 13:34:36;;;;;;;2.17;0.93;;;13.50;99.90;;;;;;5063365;28;20032;-74